sensor_id;sensor_type;location;lat;lon;timestamp;P1;durP1;ratioP1;P2;durP2;ratioP2
1811;SDS011;904;47.814;11.134;2023-02-20T00:01:28;2.80;;;1.90;;
1811;SDS011;904;47.814;11.134;2023-02-20T00:03:56;6.35;;;2.38;;
1811;SDS011;904;47.814;11.134;2023-02-20T00:06:23;2.60;;;1.40;;
1811;SDS011;904;47.814;11.134;2023-02-20T00:08:50;5.00;;;1.90;;
1811;SDS011;904;47.814;11.134;2023-02-20T00:11:17;2.95;;;2.10;;
1811;SDS011;904;47.814;11.134;2023-02-20T00:13:45;2.35;;;1.63;;
1811;SDS011;904;47.814;11.134;2023-02-20T00:16:13;3.22;;;1.60;;
1811;SDS011;904;47.814;11.134;2023-02-20T00:18:42;3.28;;;1.83;;
1811;SDS011;904;47.814;11.134;2023-02-20T00:21:10;2.63;;;1.77;;
1811;SDS011;904;47.814;11.134;2023-02-20T00:23:37;4.40;;;1.90;;
1811;SDS011;904;47.814;11.134;2023-02-20T00:26:07;2.20;;;1.45;;
1811;SDS011;904;47.814;11.134;2023-02-20T00:28:36;3.35;;;1.65;;
1811;SDS011;904;47.814;11.134;2023-02-20T00:31:04;6.60;;;2.20;;
1811;SDS011;904;47.814;11.134;2023-02-20T00:33:31;4.38;;;1.95;;
1811;SDS011;904;47.814;11.134;2023-02-20T00:36:02;4.88;;;2.20;;
1811;SDS011;904;47.814;11.134;2023-02-20T00:38:30;3.90;;;1.60;;
1811;SDS011;904;47.814;11.134;2023-02-20T00:40:57;3.55;;;1.70;;
1811;SDS011;904;47.814;11.134;2023-02-20T00:43:24;2.83;;;1.55;;
1811;SDS011;904;47.814;11.134;2023-02-20T00:45:52;5.35;;;1.92;;
1811;SDS011;904;47.814;11.134;2023-02-20T00:48:20;2.85;;;1.88;;
1811;SDS011;904;47.814;11.134;2023-02-20T00:50:47;3.65;;;1.90;;
1811;SDS011;904;47.814;11.134;2023-02-20T00:53:16;3.30;;;1.80;;
1811;SDS011;904;47.814;11.134;2023-02-20T00:55:43;3.10;;;1.60;;
1811;SDS011;904;47.814;11.134;2023-02-20T00:58:10;7.95;;;2.45;;
1811;SDS011;904;47.814;11.134;2023-02-20T01:00:37;5.57;;;2.10;;
1811;SDS011;904;47.814;11.134;2023-02-20T01:03:05;2.70;;;1.50;;
1811;SDS011;904;47.814;11.134;2023-02-20T01:05:32;3.85;;;2.13;;
1811;SDS011;904;47.814;11.134;2023-02-20T01:07:59;3.70;;;1.50;;
1811;SDS011;904;47.814;11.134;2023-02-20T01:10:27;3.45;;;1.90;;
1811;SDS011;904;47.814;11.134;2023-02-20T01:12:54;5.70;;;2.10;;
1811;SDS011;904;47.814;11.134;2023-02-20T01:15:22;5.20;;;2.13;;
1811;SDS011;904;47.814;11.134;2023-02-20T01:17:49;3.08;;;1.83;;
1811;SDS011;904;47.814;11.134;2023-02-20T01:20:16;3.08;;;1.65;;
1811;SDS011;904;47.814;11.134;2023-02-20T01:22:43;3.30;;;1.70;;
1811;SDS011;904;47.814;11.134;2023-02-20T01:25:10;4.20;;;1.80;;
1811;SDS011;904;47.814;11.134;2023-02-20T01:27:39;3.95;;;1.63;;
1811;SDS011;904;47.814;11.134;2023-02-20T01:30:07;2.50;;;1.50;;
1811;SDS011;904;47.814;11.134;2023-02-20T01:32:34;4.97;;;1.52;;
1811;SDS011;904;47.814;11.134;2023-02-20T01:35:02;2.88;;;2.20;;
1811;SDS011;904;47.814;11.134;2023-02-20T01:37:30;2.92;;;1.58;;
1811;SDS011;904;47.814;11.134;2023-02-20T01:39:57;8.63;;;1.83;;
1811;SDS011;904;47.814;11.134;2023-02-20T01:42:25;2.70;;;1.50;;
1811;SDS011;904;47.814;11.134;2023-02-20T01:47:43;4.45;;;2.22;;
1811;SDS011;904;47.814;11.134;2023-02-20T01:50:10;3.85;;;2.05;;
1811;SDS011;904;47.814;11.134;2023-02-20T01:52:39;4.78;;;2.00;;
1811;SDS011;904;47.814;11.134;2023-02-20T01:55:10;2.85;;;2.20;;
1811;SDS011;904;47.814;11.134;2023-02-20T01:57:42;4.75;;;2.50;;
1811;SDS011;904;47.814;11.134;2023-02-20T02:00:18;9.20;;;2.45;;
1811;SDS011;904;47.814;11.134;2023-02-20T02:02:48;3.28;;;2.13;;
1811;SDS011;904;47.814;11.134;2023-02-20T02:05:18;5.50;;;2.63;;
1811;SDS011;904;47.814;11.134;2023-02-20T02:07:47;3.50;;;2.22;;
1811;SDS011;904;47.814;11.134;2023-02-20T02:10:15;5.18;;;2.40;;
1811;SDS011;904;47.814;11.134;2023-02-20T02:12:47;5.25;;;2.05;;
1811;SDS011;904;47.814;11.134;2023-02-20T02:15:19;3.35;;;2.28;;
1811;SDS011;904;47.814;11.134;2023-02-20T02:18:00;4.78;;;2.03;;
1811;SDS011;904;47.814;11.134;2023-02-20T02:27:16;3.85;;;2.22;;
1811;SDS011;904;47.814;11.134;2023-02-20T02:30:13;4.32;;;2.58;;
1811;SDS011;904;47.814;11.134;2023-02-20T02:33:15;4.25;;;2.35;;
1811;SDS011;904;47.814;11.134;2023-02-20T02:36:25;4.30;;;2.17;;
1811;SDS011;904;47.814;11.134;2023-02-20T02:39:20;5.28;;;2.33;;
1811;SDS011;904;47.814;11.134;2023-02-20T02:41:53;3.85;;;1.80;;
1811;SDS011;904;47.814;11.134;2023-02-20T02:44:28;3.67;;;2.13;;
1811;SDS011;904;47.814;11.134;2023-02-20T02:47:01;3.70;;;2.15;;
1811;SDS011;904;47.814;11.134;2023-02-20T02:49:34;4.20;;;2.22;;
1811;SDS011;904;47.814;11.134;2023-02-20T02:52:10;4.95;;;2.33;;
1811;SDS011;904;47.814;11.134;2023-02-20T02:54:58;4.40;;;2.70;;
1811;SDS011;904;47.814;11.134;2023-02-20T02:57:25;4.05;;;2.42;;
1811;SDS011;904;47.814;11.134;2023-02-20T02:59:53;4.35;;;2.92;;
1811;SDS011;904;47.814;11.134;2023-02-20T03:02:26;4.90;;;2.38;;
1811;SDS011;904;47.814;11.134;2023-02-20T03:04:57;5.07;;;2.90;;
1811;SDS011;904;47.814;11.134;2023-02-20T03:07:28;3.78;;;2.65;;
1811;SDS011;904;47.814;11.134;2023-02-20T03:10:01;6.72;;;2.38;;
1811;SDS011;904;47.814;11.134;2023-02-20T03:12:31;3.50;;;2.65;;
1811;SDS011;904;47.814;11.134;2023-02-20T03:15:02;5.45;;;2.47;;
1811;SDS011;904;47.814;11.134;2023-02-20T03:17:53;3.17;;;2.28;;
1811;SDS011;904;47.814;11.134;2023-02-20T03:20:30;3.85;;;2.30;;
1811;SDS011;904;47.814;11.134;2023-02-20T03:22:58;3.75;;;2.38;;
1811;SDS011;904;47.814;11.134;2023-02-20T03:25:29;6.57;;;2.80;;
1811;SDS011;904;47.814;11.134;2023-02-20T03:27:59;4.60;;;2.50;;
1811;SDS011;904;47.814;11.134;2023-02-20T03:30:29;3.50;;;2.25;;
1811;SDS011;904;47.814;11.134;2023-02-20T03:33:01;3.50;;;2.25;;
1811;SDS011;904;47.814;11.134;2023-02-20T03:35:50;4.55;;;2.60;;
1811;SDS011;904;47.814;11.134;2023-02-20T03:38:40;3.00;;;2.10;;
1811;SDS011;904;47.814;11.134;2023-02-20T03:41:27;8.10;;;2.58;;
1811;SDS011;904;47.814;11.134;2023-02-20T03:44:13;4.70;;;2.40;;
1811;SDS011;904;47.814;11.134;2023-02-20T03:46:43;7.32;;;2.65;;
1811;SDS011;904;47.814;11.134;2023-02-20T03:49:13;4.10;;;2.15;;
1811;SDS011;904;47.814;11.134;2023-02-20T03:51:44;3.92;;;2.25;;
1811;SDS011;904;47.814;11.134;2023-02-20T03:54:13;4.25;;;2.40;;
1811;SDS011;904;47.814;11.134;2023-02-20T03:56:41;4.68;;;2.95;;
1811;SDS011;904;47.814;11.134;2023-02-20T03:59:17;3.53;;;2.20;;
1811;SDS011;904;47.814;11.134;2023-02-20T04:01:48;5.68;;;2.88;;
1811;SDS011;904;47.814;11.134;2023-02-20T04:04:23;4.57;;;2.33;;
1811;SDS011;904;47.814;11.134;2023-02-20T04:06:54;3.10;;;2.00;;
1811;SDS011;904;47.814;11.134;2023-02-20T04:09:24;3.78;;;2.15;;
1811;SDS011;904;47.814;11.134;2023-02-20T04:11:56;5.38;;;2.10;;
1811;SDS011;904;47.814;11.134;2023-02-20T04:14:26;4.10;;;2.38;;
1811;SDS011;904;47.814;11.134;2023-02-20T04:16:57;3.03;;;1.77;;
1811;SDS011;904;47.814;11.134;2023-02-20T04:19:28;6.05;;;2.25;;
1811;SDS011;904;47.814;11.134;2023-02-20T04:21:58;5.80;;;2.60;;
1811;SDS011;904;47.814;11.134;2023-02-20T04:24:30;3.05;;;2.00;;
1811;SDS011;904;47.814;11.134;2023-02-20T04:27:01;3.20;;;2.00;;
1811;SDS011;904;47.814;11.134;2023-02-20T04:29:29;3.72;;;2.20;;
1811;SDS011;904;47.814;11.134;2023-02-20T04:31:57;4.43;;;2.22;;
1811;SDS011;904;47.814;11.134;2023-02-20T04:34:24;4.93;;;2.30;;
1811;SDS011;904;47.814;11.134;2023-02-20T04:36:52;3.33;;;1.55;;
1811;SDS011;904;47.814;11.134;2023-02-20T04:39:31;4.13;;;1.58;;
1811;SDS011;904;47.814;11.134;2023-02-20T04:41:58;5.60;;;3.28;;
1811;SDS011;904;47.814;11.134;2023-02-20T04:44:25;3.25;;;1.80;;
1811;SDS011;904;47.814;11.134;2023-02-20T04:47:00;4.80;;;2.20;;
1811;SDS011;904;47.814;11.134;2023-02-20T04:49:29;3.75;;;2.22;;
1811;SDS011;904;47.814;11.134;2023-02-20T04:51:56;4.72;;;2.30;;
1811;SDS011;904;47.814;11.134;2023-02-20T04:54:24;3.78;;;1.95;;
1811;SDS011;904;47.814;11.134;2023-02-20T04:56:52;5.57;;;2.63;;
1811;SDS011;904;47.814;11.134;2023-02-20T04:59:20;6.72;;;2.03;;
1811;SDS011;904;47.814;11.134;2023-02-20T05:01:47;5.78;;;2.00;;
1811;SDS011;904;47.814;11.134;2023-02-20T05:04:16;10.27;;;2.30;;
1811;SDS011;904;47.814;11.134;2023-02-20T05:06:46;6.22;;;3.38;;
1811;SDS011;904;47.814;11.134;2023-02-20T05:09:17;6.07;;;2.80;;
1811;SDS011;904;47.814;11.134;2023-02-20T05:11:45;4.57;;;2.80;;
1811;SDS011;904;47.814;11.134;2023-02-20T05:14:13;5.95;;;2.67;;
1811;SDS011;904;47.814;11.134;2023-02-20T05:16:41;4.57;;;2.65;;
1811;SDS011;904;47.814;11.134;2023-02-20T05:19:10;9.93;;;5.40;;
1811;SDS011;904;47.814;11.134;2023-02-20T05:21:37;6.47;;;4.22;;
1811;SDS011;904;47.814;11.134;2023-02-20T05:24:21;7.32;;;4.30;;
1811;SDS011;904;47.814;11.134;2023-02-20T05:26:49;8.63;;;3.20;;
1811;SDS011;904;47.814;11.134;2023-02-20T05:29:19;4.53;;;3.10;;
1811;SDS011;904;47.814;11.134;2023-02-20T05:31:46;3.58;;;2.78;;
1811;SDS011;904;47.814;11.134;2023-02-20T05:34:14;5.60;;;2.28;;
1811;SDS011;904;47.814;11.134;2023-02-20T05:36:41;5.13;;;2.40;;
1811;SDS011;904;47.814;11.134;2023-02-20T05:39:08;5.20;;;2.40;;
1811;SDS011;904;47.814;11.134;2023-02-20T05:41:35;5.38;;;2.40;;
1811;SDS011;904;47.814;11.134;2023-02-20T05:44:03;7.15;;;2.72;;
1811;SDS011;904;47.814;11.134;2023-02-20T05:46:37;3.50;;;2.05;;
1811;SDS011;904;47.814;11.134;2023-02-20T05:49:05;6.72;;;2.47;;
1811;SDS011;904;47.814;11.134;2023-02-20T05:51:32;4.60;;;2.45;;
1811;SDS011;904;47.814;11.134;2023-02-20T05:54:00;8.15;;;3.75;;
1811;SDS011;904;47.814;11.134;2023-02-20T05:56:27;8.27;;;2.20;;
1811;SDS011;904;47.814;11.134;2023-02-20T05:58:57;2.92;;;2.05;;
1811;SDS011;904;47.814;11.134;2023-02-20T06:01:25;4.00;;;2.35;;
1811;SDS011;904;47.814;11.134;2023-02-20T06:03:55;7.50;;;2.88;;
1811;SDS011;904;47.814;11.134;2023-02-20T06:06:23;4.85;;;2.45;;
1811;SDS011;904;47.814;11.134;2023-02-20T06:08:56;4.72;;;2.50;;
1811;SDS011;904;47.814;11.134;2023-02-20T06:11:24;10.57;;;3.05;;
1811;SDS011;904;47.814;11.134;2023-02-20T06:13:51;3.58;;;2.42;;
1811;SDS011;904;47.814;11.134;2023-02-20T06:16:21;10.50;;;2.70;;
1811;SDS011;904;47.814;11.134;2023-02-20T06:18:48;5.10;;;2.58;;
1811;SDS011;904;47.814;11.134;2023-02-20T06:21:17;5.22;;;2.08;;
1811;SDS011;904;47.814;11.134;2023-02-20T06:23:45;3.60;;;2.20;;
1811;SDS011;904;47.814;11.134;2023-02-20T06:26:12;4.75;;;1.80;;
1811;SDS011;904;47.814;11.134;2023-02-20T06:28:40;5.72;;;2.42;;
1811;SDS011;904;47.814;11.134;2023-02-20T06:31:08;3.53;;;2.35;;
1811;SDS011;904;47.814;11.134;2023-02-20T06:33:36;3.33;;;2.50;;
1811;SDS011;904;47.814;11.134;2023-02-20T06:36:04;5.57;;;3.40;;
1811;SDS011;904;47.814;11.134;2023-02-20T06:38:33;5.28;;;2.88;;
1811;SDS011;904;47.814;11.134;2023-02-20T06:41:02;5.93;;;2.95;;
1811;SDS011;904;47.814;11.134;2023-02-20T06:43:29;5.82;;;3.13;;
1811;SDS011;904;47.814;11.134;2023-02-20T06:45:57;4.95;;;2.47;;
1811;SDS011;904;47.814;11.134;2023-02-20T06:48:29;8.18;;;4.03;;
1811;SDS011;904;47.814;11.134;2023-02-20T06:50:56;6.63;;;3.50;;
1811;SDS011;904;47.814;11.134;2023-02-20T06:53:23;9.15;;;3.60;;
1811;SDS011;904;47.814;11.134;2023-02-20T06:55:52;6.25;;;3.20;;
1811;SDS011;904;47.814;11.134;2023-02-20T06:58:19;5.80;;;4.25;;
1811;SDS011;904;47.814;11.134;2023-02-20T07:00:47;6.22;;;4.00;;
1811;SDS011;904;47.814;11.134;2023-02-20T07:03:14;5.85;;;3.40;;
1811;SDS011;904;47.814;11.134;2023-02-20T07:05:42;6.90;;;3.45;;
1811;SDS011;904;47.814;11.134;2023-02-20T07:08:10;6.40;;;3.55;;
1811;SDS011;904;47.814;11.134;2023-02-20T07:10:37;9.48;;;3.25;;
1811;SDS011;904;47.814;11.134;2023-02-20T07:13:06;5.28;;;2.35;;
1811;SDS011;904;47.814;11.134;2023-02-20T07:15:33;4.70;;;2.20;;
1811;SDS011;904;47.814;11.134;2023-02-20T07:18:00;9.18;;;3.72;;
1811;SDS011;904;47.814;11.134;2023-02-20T07:20:27;7.40;;;3.42;;
1811;SDS011;904;47.814;11.134;2023-02-20T07:22:54;5.00;;;2.97;;
1811;SDS011;904;47.814;11.134;2023-02-20T07:25:22;8.48;;;4.38;;
1811;SDS011;904;47.814;11.134;2023-02-20T07:27:49;8.13;;;4.50;;
1811;SDS011;904;47.814;11.134;2023-02-20T07:30:18;6.72;;;3.55;;
1811;SDS011;904;47.814;11.134;2023-02-20T07:32:45;4.95;;;3.15;;
1811;SDS011;904;47.814;11.134;2023-02-20T07:35:13;7.43;;;4.10;;
1811;SDS011;904;47.814;11.134;2023-02-20T07:37:40;9.20;;;5.80;;
1811;SDS011;904;47.814;11.134;2023-02-20T07:40:08;10.90;;;5.35;;
1811;SDS011;904;47.814;11.134;2023-02-20T07:42:35;10.77;;;4.32;;
1811;SDS011;904;47.814;11.134;2023-02-20T07:45:03;5.82;;;3.90;;
1811;SDS011;904;47.814;11.134;2023-02-20T07:47:33;6.88;;;4.70;;
1811;SDS011;904;47.814;11.134;2023-02-20T07:50:00;4.60;;;3.95;;
1811;SDS011;904;47.814;11.134;2023-02-20T07:52:27;4.63;;;3.00;;
1811;SDS011;904;47.814;11.134;2023-02-20T07:54:54;4.85;;;2.85;;
1811;SDS011;904;47.814;11.134;2023-02-20T07:57:21;9.00;;;2.90;;
1811;SDS011;904;47.814;11.134;2023-02-20T07:59:48;4.00;;;2.50;;
1811;SDS011;904;47.814;11.134;2023-02-20T08:02:15;3.70;;;2.27;;
1811;SDS011;904;47.814;11.134;2023-02-20T08:04:44;8.77;;;2.50;;
1811;SDS011;904;47.814;11.134;2023-02-20T08:07:11;4.00;;;2.27;;
1811;SDS011;904;47.814;11.134;2023-02-20T08:09:37;4.27;;;2.00;;
1811;SDS011;904;47.814;11.134;2023-02-20T08:12:04;4.23;;;2.27;;
1811;SDS011;904;47.814;11.134;2023-02-20T08:14:32;3.40;;;2.10;;
1811;SDS011;904;47.814;11.134;2023-02-20T08:16:59;3.20;;;2.10;;
1811;SDS011;904;47.814;11.134;2023-02-20T08:19:26;6.73;;;2.60;;
1811;SDS011;904;47.814;11.134;2023-02-20T08:21:54;3.07;;;1.87;;
1811;SDS011;904;47.814;11.134;2023-02-20T08:24:21;3.00;;;2.53;;
1811;SDS011;904;47.814;11.134;2023-02-20T08:26:48;5.60;;;2.40;;
1811;SDS011;904;47.814;11.134;2023-02-20T08:29:15;3.80;;;2.30;;
1811;SDS011;904;47.814;11.134;2023-02-20T08:31:42;7.17;;;2.90;;
1811;SDS011;904;47.814;11.134;2023-02-20T08:34:09;2.73;;;1.87;;
1811;SDS011;904;47.814;11.134;2023-02-20T08:36:36;4.40;;;2.27;;
1811;SDS011;904;47.814;11.134;2023-02-20T08:39:06;5.67;;;2.30;;
1811;SDS011;904;47.814;11.134;2023-02-20T08:41:33;4.13;;;1.83;;
1811;SDS011;904;47.814;11.134;2023-02-20T08:44:00;6.60;;;1.73;;
1811;SDS011;904;47.814;11.134;2023-02-20T08:46:27;2.80;;;1.63;;
1811;SDS011;904;47.814;11.134;2023-02-20T08:48:54;4.10;;;1.50;;
1811;SDS011;904;47.814;11.134;2023-02-20T08:51:21;2.70;;;1.50;;
1811;SDS011;904;47.814;11.134;2023-02-20T08:53:48;3.13;;;1.37;;
1811;SDS011;904;47.814;11.134;2023-02-20T08:56:18;4.20;;;2.20;;
1811;SDS011;904;47.814;11.134;2023-02-20T08:58:45;2.83;;;1.57;;
1811;SDS011;904;47.814;11.134;2023-02-20T09:01:12;3.90;;;1.60;;
1811;SDS011;904;47.814;11.134;2023-02-20T09:03:39;2.80;;;2.10;;
1811;SDS011;904;47.814;11.134;2023-02-20T09:06:07;3.83;;;1.77;;
1811;SDS011;904;47.814;11.134;2023-02-20T09:08:34;3.53;;;1.60;;
1811;SDS011;904;47.814;11.134;2023-02-20T09:11:01;4.47;;;2.60;;
1811;SDS011;904;47.814;11.134;2023-02-20T09:13:30;2.90;;;2.17;;
1811;SDS011;904;47.814;11.134;2023-02-20T09:15:57;3.50;;;1.43;;
1811;SDS011;904;47.814;11.134;2023-02-20T09:18:24;5.90;;;1.93;;
1811;SDS011;904;47.814;11.134;2023-02-20T09:20:51;7.20;;;2.40;;
1811;SDS011;904;47.814;11.134;2023-02-20T09:23:19;5.33;;;2.00;;
1811;SDS011;904;47.814;11.134;2023-02-20T09:25:48;3.40;;;1.33;;
1811;SDS011;904;47.814;11.134;2023-02-20T09:28:15;2.67;;;1.40;;
1811;SDS011;904;47.814;11.134;2023-02-20T09:30:44;3.93;;;1.90;;
1811;SDS011;904;47.814;11.134;2023-02-20T09:33:11;3.10;;;1.40;;
1811;SDS011;904;47.814;11.134;2023-02-20T09:35:38;2.67;;;1.60;;
1811;SDS011;904;47.814;11.134;2023-02-20T09:38:05;2.20;;;1.07;;
1811;SDS011;904;47.814;11.134;2023-02-20T09:40:32;2.60;;;1.30;;
1811;SDS011;904;47.814;11.134;2023-02-20T09:43:04;4.93;;;1.60;;
1811;SDS011;904;47.814;11.134;2023-02-20T09:45:39;4.17;;;1.63;;
1811;SDS011;904;47.814;11.134;2023-02-20T09:48:16;2.83;;;1.30;;
1811;SDS011;904;47.814;11.134;2023-02-20T09:50:52;2.50;;;1.60;;
1811;SDS011;904;47.814;11.134;2023-02-20T09:53:29;2.50;;;1.30;;
1811;SDS011;904;47.814;11.134;2023-02-20T09:56:00;3.07;;;1.47;;
1811;SDS011;904;47.814;11.134;2023-02-20T09:58:33;3.70;;;1.73;;
1811;SDS011;904;47.814;11.134;2023-02-20T10:01:07;2.83;;;1.27;;
1811;SDS011;904;47.814;11.134;2023-02-20T10:03:38;2.47;;;1.30;;
1811;SDS011;904;47.814;11.134;2023-02-20T10:06:20;2.73;;;1.30;;
1811;SDS011;904;47.814;11.134;2023-02-20T10:08:50;2.70;;;1.30;;
1811;SDS011;904;47.814;11.134;2023-02-20T10:11:21;4.00;;;2.23;;
1811;SDS011;904;47.814;11.134;2023-02-20T10:13:56;3.30;;;1.30;;
1811;SDS011;904;47.814;11.134;2023-02-20T10:16:33;3.10;;;1.60;;
1811;SDS011;904;47.814;11.134;2023-02-20T10:19:12;4.00;;;1.43;;
1811;SDS011;904;47.814;11.134;2023-02-20T10:21:50;5.60;;;4.30;;
1811;SDS011;904;47.814;11.134;2023-02-20T10:24:29;2.83;;;1.60;;
1811;SDS011;904;47.814;11.134;2023-02-20T10:27:24;3.17;;;1.57;;
1811;SDS011;904;47.814;11.134;2023-02-20T10:29:55;3.40;;;1.27;;
1811;SDS011;904;47.814;11.134;2023-02-20T10:32:24;2.23;;;1.00;;
1811;SDS011;904;47.814;11.134;2023-02-20T10:34:58;4.87;;;2.40;;
1811;SDS011;904;47.814;11.134;2023-02-20T10:37:32;5.37;;;1.70;;
1811;SDS011;904;47.814;11.134;2023-02-20T10:40:04;2.50;;;1.20;;
1811;SDS011;904;47.814;11.134;2023-02-20T10:42:39;2.90;;;1.43;;
1811;SDS011;904;47.814;11.134;2023-02-20T10:45:11;2.50;;;1.40;;
1811;SDS011;904;47.814;11.134;2023-02-20T10:47:43;2.50;;;1.50;;
1811;SDS011;904;47.814;11.134;2023-02-20T10:50:15;2.73;;;1.40;;
1811;SDS011;904;47.814;11.134;2023-02-20T10:52:49;5.30;;;2.13;;
1811;SDS011;904;47.814;11.134;2023-02-20T10:55:23;3.70;;;1.60;;
1811;SDS011;904;47.814;11.134;2023-02-20T10:57:54;3.00;;;1.33;;
1811;SDS011;904;47.814;11.134;2023-02-20T11:00:24;2.83;;;1.20;;
1811;SDS011;904;47.814;11.134;2023-02-20T11:02:58;2.10;;;1.20;;
1811;SDS011;904;47.814;11.134;2023-02-20T11:05:32;2.93;;;1.13;;
1811;SDS011;904;47.814;11.134;2023-02-20T11:08:03;2.63;;;1.03;;
1811;SDS011;904;47.814;11.134;2023-02-20T11:10:30;2.90;;;1.90;;
1811;SDS011;904;47.814;11.134;2023-02-20T11:12:59;2.40;;;1.40;;
1811;SDS011;904;47.814;11.134;2023-02-20T11:15:28;2.40;;;1.03;;
1811;SDS011;904;47.814;11.134;2023-02-20T11:18:00;3.60;;;1.47;;
1811;SDS011;904;47.814;11.134;2023-02-20T11:20:43;2.70;;;1.23;;
1811;SDS011;904;47.814;11.134;2023-02-20T11:23:31;3.17;;;1.10;;
1811;SDS011;904;47.814;11.134;2023-02-20T11:28:56;2.77;;;1.13;;
1811;SDS011;904;47.814;11.134;2023-02-20T11:31:25;3.17;;;1.40;;
1811;SDS011;904;47.814;11.134;2023-02-20T11:33:53;4.03;;;1.20;;
1811;SDS011;904;47.814;11.134;2023-02-20T11:36:22;4.50;;;3.67;;
1811;SDS011;904;47.814;11.134;2023-02-20T11:38:55;3.13;;;1.53;;
1811;SDS011;904;47.814;11.134;2023-02-20T11:41:27;2.30;;;1.00;;
1811;SDS011;904;47.814;11.134;2023-02-20T11:47:10;3.40;;;0.80;;
1811;SDS011;904;47.814;11.134;2023-02-20T11:50:09;2.60;;;1.40;;
1811;SDS011;904;47.814;11.134;2023-02-20T11:52:52;3.10;;;1.00;;
1811;SDS011;904;47.814;11.134;2023-02-20T11:55:24;3.30;;;1.00;;
1811;SDS011;904;47.814;11.134;2023-02-20T11:57:53;3.80;;;1.00;;
1811;SDS011;904;47.814;11.134;2023-02-20T12:00:21;2.27;;;1.20;;
1811;SDS011;904;47.814;11.134;2023-02-20T12:02:50;2.37;;;0.80;;
1811;SDS011;904;47.814;11.134;2023-02-20T12:05:19;3.00;;;0.90;;
1811;SDS011;904;47.814;11.134;2023-02-20T12:07:56;3.33;;;0.97;;
1811;SDS011;904;47.814;11.134;2023-02-20T12:10:32;2.33;;;1.50;;
1811;SDS011;904;47.814;11.134;2023-02-20T12:13:10;3.13;;;1.87;;
1811;SDS011;904;47.814;11.134;2023-02-20T12:15:40;3.00;;;1.37;;
1811;SDS011;904;47.814;11.134;2023-02-20T12:18:18;2.43;;;1.00;;
1811;SDS011;904;47.814;11.134;2023-02-20T12:21:01;4.23;;;1.17;;
1811;SDS011;904;47.814;11.134;2023-02-20T12:23:45;1.80;;;0.97;;
1811;SDS011;904;47.814;11.134;2023-02-20T12:26:26;6.23;;;5.63;;
1811;SDS011;904;47.814;11.134;2023-02-20T12:29:11;5.23;;;1.30;;
1811;SDS011;904;47.814;11.134;2023-02-20T12:31:53;4.03;;;1.20;;
1811;SDS011;904;47.814;11.134;2023-02-20T12:34:35;3.10;;;1.50;;
1811;SDS011;904;47.814;11.134;2023-02-20T12:37:23;2.70;;;1.70;;
1811;SDS011;904;47.814;11.134;2023-02-20T12:40:05;3.70;;;1.60;;
1811;SDS011;904;47.814;11.134;2023-02-20T12:42:49;2.90;;;1.60;;
1811;SDS011;904;47.814;11.134;2023-02-20T12:45:25;4.23;;;1.27;;
1811;SDS011;904;47.814;11.134;2023-02-20T12:48:14;4.77;;;0.87;;
1811;SDS011;904;47.814;11.134;2023-02-20T12:50:54;3.73;;;1.53;;
1811;SDS011;904;47.814;11.134;2023-02-20T12:53:33;2.60;;;1.17;;
1811;SDS011;904;47.814;11.134;2023-02-20T12:56:17;5.20;;;1.30;;
1811;SDS011;904;47.814;11.134;2023-02-20T12:58:55;3.50;;;0.80;;
1811;SDS011;904;47.814;11.134;2023-02-20T13:01:26;2.30;;;0.90;;
1811;SDS011;904;47.814;11.134;2023-02-20T13:03:57;3.30;;;2.27;;
1811;SDS011;904;47.814;11.134;2023-02-20T13:06:29;4.60;;;3.60;;
1811;SDS011;904;47.814;11.134;2023-02-20T13:09:02;3.83;;;1.87;;
1811;SDS011;904;47.814;11.134;2023-02-20T13:11:35;2.60;;;1.33;;
1811;SDS011;904;47.814;11.134;2023-02-20T13:14:13;3.63;;;1.53;;
1811;SDS011;904;47.814;11.134;2023-02-20T13:16:47;1.90;;;0.90;;
1811;SDS011;904;47.814;11.134;2023-02-20T13:19:24;1.90;;;0.77;;
1811;SDS011;904;47.814;11.134;2023-02-20T13:21:56;2.40;;;0.80;;
1811;SDS011;904;47.814;11.134;2023-02-20T13:24:28;2.53;;;0.77;;
1811;SDS011;904;47.814;11.134;2023-02-20T13:26:57;3.37;;;1.07;;
1811;SDS011;904;47.814;11.134;2023-02-20T13:29:31;2.70;;;1.00;;
1811;SDS011;904;47.814;11.134;2023-02-20T13:32:01;2.80;;;0.73;;
1811;SDS011;904;47.814;11.134;2023-02-20T13:34:31;3.77;;;0.90;;
1811;SDS011;904;47.814;11.134;2023-02-20T13:37:01;3.30;;;0.90;;
1811;SDS011;904;47.814;11.134;2023-02-20T13:44:56;2.43;;;0.80;;
1811;SDS011;904;47.814;11.134;2023-02-20T13:47:36;2.47;;;0.90;;
1811;SDS011;904;47.814;11.134;2023-02-20T13:53:02;2.00;;;0.80;;
1811;SDS011;904;47.814;11.134;2023-02-20T13:55:30;2.30;;;0.80;;
1811;SDS011;904;47.814;11.134;2023-02-20T13:58:03;2.03;;;0.97;;
1811;SDS011;904;47.814;11.134;2023-02-20T14:00:43;2.53;;;1.03;;
1811;SDS011;904;47.814;11.134;2023-02-20T14:03:21;2.47;;;0.63;;
1811;SDS011;904;47.814;11.134;2023-02-20T14:06:06;2.13;;;0.70;;
1811;SDS011;904;47.814;11.134;2023-02-20T14:08:35;1.87;;;0.80;;
1811;SDS011;904;47.814;11.134;2023-02-20T14:11:08;2.40;;;0.80;;
1811;SDS011;904;47.814;11.134;2023-02-20T14:13:37;2.80;;;0.60;;
1811;SDS011;904;47.814;11.134;2023-02-20T14:16:25;3.00;;;1.00;;
1811;SDS011;904;47.814;11.134;2023-02-20T14:18:57;3.90;;;2.57;;
1811;SDS011;904;47.814;11.134;2023-02-20T14:21:26;1.80;;;0.70;;
1811;SDS011;904;47.814;11.134;2023-02-20T14:23:55;2.43;;;1.10;;
1811;SDS011;904;47.814;11.134;2023-02-20T14:26:23;2.53;;;0.83;;
1811;SDS011;904;47.814;11.134;2023-02-20T14:28:53;2.00;;;0.70;;
1811;SDS011;904;47.814;11.134;2023-02-20T14:31:23;4.80;;;1.37;;
1811;SDS011;904;47.814;11.134;2023-02-20T14:33:54;2.57;;;0.97;;
1811;SDS011;904;47.814;11.134;2023-02-20T14:39:26;4.50;;;0.80;;
1811;SDS011;904;47.814;11.134;2023-02-20T14:42:03;4.00;;;1.00;;
1811;SDS011;904;47.814;11.134;2023-02-20T14:44:32;1.77;;;0.77;;
1811;SDS011;904;47.814;11.134;2023-02-20T14:47:01;2.00;;;0.80;;
1811;SDS011;904;47.814;11.134;2023-02-20T14:49:33;2.13;;;1.00;;
1811;SDS011;904;47.814;11.134;2023-02-20T14:52:04;1.80;;;0.70;;
1811;SDS011;904;47.814;11.134;2023-02-20T14:54:39;2.47;;;0.90;;
1811;SDS011;904;47.814;11.134;2023-02-20T14:57:11;3.90;;;1.00;;
1811;SDS011;904;47.814;11.134;2023-02-20T14:59:42;1.97;;;0.83;;
1811;SDS011;904;47.814;11.134;2023-02-20T15:02:13;2.73;;;0.90;;
1811;SDS011;904;47.814;11.134;2023-02-20T15:04:45;1.90;;;0.80;;
1811;SDS011;904;47.814;11.134;2023-02-20T15:07:13;2.50;;;0.87;;
1811;SDS011;904;47.814;11.134;2023-02-20T15:09:42;3.70;;;0.90;;
1811;SDS011;904;47.814;11.134;2023-02-20T15:12:18;2.00;;;1.10;;
1811;SDS011;904;47.814;11.134;2023-02-20T15:14:53;3.40;;;1.00;;
1811;SDS011;904;47.814;11.134;2023-02-20T15:17:23;2.20;;;1.07;;
1811;SDS011;904;47.814;11.134;2023-02-20T15:19:51;2.23;;;1.00;;
1811;SDS011;904;47.814;11.134;2023-02-20T15:22:26;4.57;;;1.23;;
1811;SDS011;904;47.814;11.134;2023-02-20T15:25:10;2.20;;;1.20;;
1811;SDS011;904;47.814;11.134;2023-02-20T15:27:38;1.93;;;0.80;;
1811;SDS011;904;47.814;11.134;2023-02-20T15:30:08;1.80;;;0.80;;
1811;SDS011;904;47.814;11.134;2023-02-20T15:32:39;1.90;;;1.10;;
1811;SDS011;904;47.814;11.134;2023-02-20T15:35:12;2.03;;;0.93;;
1811;SDS011;904;47.814;11.134;2023-02-20T15:37:42;3.83;;;0.97;;
1811;SDS011;904;47.814;11.134;2023-02-20T15:40:16;7.30;;;3.57;;
1811;SDS011;904;47.814;11.134;2023-02-20T15:42:47;3.43;;;1.43;;
1811;SDS011;904;47.814;11.134;2023-02-20T15:45:21;2.93;;;1.03;;
1811;SDS011;904;47.814;11.134;2023-02-20T15:47:49;2.00;;;0.90;;
1811;SDS011;904;47.814;11.134;2023-02-20T15:50:16;3.23;;;1.47;;
1811;SDS011;904;47.814;11.134;2023-02-20T15:52:43;2.40;;;0.83;;
1811;SDS011;904;47.814;11.134;2023-02-20T15:55:12;3.90;;;1.00;;
1811;SDS011;904;47.814;11.134;2023-02-20T15:57:42;2.53;;;1.40;;
1811;SDS011;904;47.814;11.134;2023-02-20T16:00:10;4.57;;;1.33;;
1811;SDS011;904;47.814;11.134;2023-02-20T16:02:46;1.73;;;0.90;;
1811;SDS011;904;47.814;11.134;2023-02-20T16:05:14;2.10;;;1.13;;
1811;SDS011;904;47.814;11.134;2023-02-20T16:07:41;3.80;;;1.00;;